Time;durP1;ratioP1;P1;durP2;ratioP2;P2;SDS_P1;SDS_P2;PMS_P1;PMS_P2;Temp;Humidity;BMP_temperature;BMP_pressure;BME280_temperature;BME280_humidity;BME280_pressure;Samples;Min_cycle;Max_cycle;Signal;HPM_P1;HPM_P2
2021/08/28 00:00:01;;;;;;;;;;;;;;;20.93;48.43;95585.31;1036462;28;1354;-69
2021/08/28 00:00:31;;;;;;;;;;;;;;;20.94;48.23;95589.50;1032298;28;2023;-70
2021/08/28 00:01:02;;;;;;;;;;;;;;;20.93;48.20;95587.16;1036289;28;1333;-70
2021/08/28 00:01:32;;;;;;;;;;;;;;;20.93;48.42;95582.69;1036552;28;1310;-69
2021/08/28 00:02:02;;;;;;;;;;;;;;;20.93;48.23;95587.94;1044411;28;1237;-71
2021/08/28 00:02:33;;;;;;;;;;;;;;;20.93;48.38;95582.69;1046709;28;1316;-69
2021/08/28 00:03:03;;;;;;;;;;;;;;;20.93;48.03;95585.31;1048748;28;1241;-70
2021/08/28 00:03:33;;;;;;;;;;;;;;;20.93;48.28;95590.56;1051262;28;1256;-68
2021/08/28 00:04:04;;;;;;;;;;;;;;;20.92;48.38;95589.00;1052713;28;1965;-71
2021/08/28 00:04:34;;;;;;;;;;;;;;;20.93;48.47;95592.41;1047212;28;1246;-68
2021/08/28 00:05:05;;;;;;;;;;;;;;;20.93;48.44;95587.94;1044619;28;1238;-70
2021/08/28 00:05:35;;;;;;;;;;;;;;;20.93;48.43;95585.31;1044701;28;2068;-70
2021/08/28 00:06:05;;;;;;;;;;;;;;;20.93;48.29;95589.78;1044511;28;1123;-70
2021/08/28 00:06:36;;;;;;;;;;;;;;;20.92;48.34;95583.72;1036171;28;1258;-69
2021/08/28 00:07:06;;;;;;;;;;;;;;;20.93;48.09;95590.56;1044017;28;1148;-69
2021/08/28 00:07:36;;;;;;;;;;;;;;;20.94;48.43;95589.50;1043248;28;1241;-70
2021/08/28 00:08:06;;;;;;;;;;;;;;;20.92;48.33;95589.00;1044235;28;1520;-70
2021/08/28 00:08:37;;;;;;;;;;;;;;;20.92;48.34;95589.00;1047770;28;1050;-68
2021/08/28 00:09:07;;;;;;;;;;;;;;;20.93;48.09;95590.56;1048528;28;1074;-69
2021/08/28 00:09:37;;;;;;;;;;;;;;;20.93;48.38;95587.94;1043608;28;1214;-71
2021/08/28 00:10:08;;;;;;;;;;;;;;;20.93;48.23;95584.50;1043763;28;2123;-72
2021/08/28 00:10:38;;;;;;;;;;;;;;;20.93;48.32;95590.56;1047736;28;2135;-70
2021/08/28 00:11:09;;;;;;;;;;;;;;;20.93;48.16;95590.56;1048233;28;965;-69
2021/08/28 00:11:39;;;;;;;;;;;;;;;20.93;48.31;95589.78;1042935;28;1248;-69
2021/08/28 00:12:09;;;;;;;;;;;;;;;20.93;48.28;95589.78;1038105;28;1729;-69
2021/08/28 00:12:40;;;;;;;;;;;;;;;20.93;48.33;95587.94;1040001;28;1206;-70
2021/08/28 00:13:10;;;;;;;;;;;;;;;20.92;48.22;95589.00;1044699;28;1213;-72
2021/08/28 00:13:43;;;;;;;;;;;;;;;20.93;48.16;95585.31;1043713;28;1257;-72
2021/08/28 00:14:13;;;;;;;;;;;;;;;20.92;48.24;95589.00;1044391;28;1857;-70
2021/08/28 00:14:43;;;;;;;;;;;;;;;20.91;48.34;95587.44;1047923;28;1063;-70
2021/08/28 00:15:13;;;;;;;;;;;;;;;20.92;48.22;95586.34;1048704;28;1275;-69
2021/08/28 00:15:44;;;;;;;;;;;;;;;20.92;48.43;95583.72;1047388;28;2082;-69
2021/08/28 00:16:14;;;;;;;;;;;;;;;20.92;48.24;95582.94;1044324;28;1664;-71
2021/08/28 00:16:45;;;;;;;;;;;;;;;20.92;48.54;95589.00;1038726;28;1392;-71
2021/08/28 00:17:15;;;;;;;;;;;;;;;20.92;48.13;95581.09;1035881;28;1194;-70
2021/08/28 00:17:46;;;;;;;;;;;;;;;20.91;48.62;95589.28;1036654;28;1318;-70
2021/08/28 00:18:16;;;;;;;;;;;;;;;20.91;48.23;95582.16;1036346;28;1238;-71
2021/08/28 00:18:46;;;;;;;;;;;;;;;20.91;48.38;95582.16;1040253;28;1127;-71
2021/08/28 00:19:17;;;;;;;;;;;;;;;20.92;48.38;95581.09;1045663;28;1162;-70
2021/08/28 00:19:47;;;;;;;;;;;;;;;20.93;48.35;95580.03;1045152;28;2162;-70
2021/08/28 00:20:17;;;;;;;;;;;;;;;20.92;48.43;95586.34;1044202;28;1208;-69
2021/08/28 00:20:48;;;;;;;;;;;;;;;20.91;48.17;95582.16;1043374;28;1210;-71
2021/08/28 00:21:18;;;;;;;;;;;;;;;20.92;48.32;95580.28;1039366;28;2566;-70
2021/08/28 00:21:48;;;;;;;;;;;;;;;20.92;48.43;95575.81;1044017;28;1206;-71
2021/08/28 00:22:19;;;;;;;;;;;;;;;20.92;48.46;95578.44;1040108;28;1296;-71
2021/08/28 00:22:49;;;;;;;;;;;;;;;20.92;48.44;95582.94;1044295;28;1147;-72
2021/08/28 00:23:19;;;;;;;;;;;;;;;20.92;48.52;95582.94;1043539;28;1404;-70
2021/08/28 00:23:50;;;;;;;;;;;;;;;20.92;48.47;95583.72;1038700;28;2009;-70
2021/08/28 00:24:20;;;;;;;;;;;;;;;20.92;48.12;95577.66;1044681;28;1914;-69
2021/08/28 00:24:50;;;;;;;;;;;;;;;20.91;48.26;95582.16;1040109;28;1202;-71
2021/08/28 00:25:21;;;;;;;;;;;;;;;20.92;48.28;95583.72;1043856;28;1228;-71
2021/08/28 00:25:51;;;;;;;;;;;;;;;20.93;48.39;95585.31;1047271;28;1196;-71
2021/08/28 00:26:21;;;;;;;;;;;;;;;20.91;48.23;95582.16;1047004;28;2183;-71
2021/08/28 00:26:52;;;;;;;;;;;;;;;20.92;48.38;95577.66;1047636;28;1501;-71
2021/08/28 00:27:23;;;;;;;;;;;;;;;20.92;48.14;95578.44;1047062;28;1276;-70
2021/08/28 00:27:53;;;;;;;;;;;;;;;20.92;48.32;95577.66;1047657;28;1233;-70
2021/08/28 00:28:23;;;;;;;;;;;;;;;20.92;48.41;95577.66;1043522;28;1338;-72
2021/08/28 00:28:54;;;;;;;;;;;;;;;20.92;48.19;95577.66;1043900;28;1467;-70
2021/08/28 00:29:24;;;;;;;;;;;;;;;20.92;48.30;95583.72;1048409;28;1730;-70
2021/08/28 00:29:54;;;;;;;;;;;;;;;20.92;48.29;95577.66;1048570;28;1241;-70
2021/08/28 00:30:25;;;;;;;;;;;;;;;20.92;48.40;95582.94;1044537;28;1351;-70
2021/08/28 00:30:56;;;;;;;;;;;;;;;20.92;48.23;95575.81;1040117;28;1119;-69
2021/08/28 00:31:26;;;;;;;;;;;;;;;20.91;48.24;95576.91;1045311;28;2076;-72
2021/08/28 00:31:56;;;;;;;;;;;;;;;20.92;48.31;95572.38;1044132;28;1882;-71
2021/08/28 00:32:27;;;;;;;;;;;;;;;20.91;48.42;95576.91;1042384;28;1277;-70
2021/08/28 00:32:57;;;;;;;;;;;;;;;20.91;48.37;95578.75;1039948;28;1389;-70
2021/08/28 00:33:27;;;;;;;;;;;;;;;20.92;48.36;95577.66;1038658;28;1402;-69
2021/08/28 00:33:57;;;;;;;;;;;;;;;20.91;48.12;95576.91;1041379;28;1225;-70
2021/08/28 00:34:28;;;;;;;;;;;;;;;20.90;48.12;95575.31;1042647;28;2155;-70
2021/08/28 00:34:58;;;;;;;;;;;;;;;20.91;48.22;95576.91;1049514;28;1295;-69
2021/08/28 00:35:28;;;;;;;;;;;;;;;20.91;48.29;95576.91;1047511;28;1278;-71
2021/08/28 00:35:58;;;;;;;;;;;;;;;20.91;48.05;95571.63;1047655;28;2070;-71
2021/08/28 00:36:29;;;;;;;;;;;;;;;20.91;48.66;95576.09;1038513;28;1470;-71
2021/08/28 00:36:59;;;;;;;;;;;;;;;20.92;48.37;95577.66;1036153;28;1242;-70
2021/08/28 00:37:29;;;;;;;;;;;;;;;20.91;48.22;95569.00;1035492;28;1416;-70
2021/08/28 00:38:00;;;;;;;;;;;;;;;20.90;48.46;95572.69;1036270;28;1238;-70
2021/08/28 00:38:30;;;;;;;;;;;;;;;20.90;48.45;95577.94;1039186;28;1973;-71
2021/08/28 00:39:00;;;;;;;;;;;;;;;20.90;48.63;95575.31;1045002;28;2281;-70
2021/08/28 00:39:31;;;;;;;;;;;;;;;20.90;48.23;95574.53;1038216;28;1495;-72
2021/08/28 00:40:01;;;;;;;;;;;;;;;20.90;48.23;95577.94;1044566;28;1250;-70
2021/08/28 00:40:32;;;;;;;;;;;;;;;20.91;48.27;95576.09;1038856;28;1225;-70
2021/08/28 00:41:02;;;;;;;;;;;;;;;20.89;48.34;95571.13;1040276;28;980;-72
2021/08/28 00:41:33;;;;;;;;;;;;;;;20.91;48.24;95568.19;1048385;28;1216;-71
2021/08/28 00:42:03;;;;;;;;;;;;;;;20.90;48.10;95564.78;1039597;28;1739;-70
2021/08/28 00:42:44;;;;;;;;;;;;;;;20.90;48.23;95569.25;1035189;28;1347;-70
2021/08/28 00:43:14;;;;;;;;;;;;;;;20.90;48.26;95564.78;1032259;28;1191;-70
2021/08/28 00:43:44;;;;;;;;;;;;;;;20.91;48.17;95570.84;1034156;28;2048;-71
2021/08/28 00:44:15;;;;;;;;;;;;;;;20.90;48.18;95563.97;1041853;28;1981;-71
2021/08/28 00:44:45;;;;;;;;;;;;;;;20.91;48.36;95562.94;1044422;28;1411;-71
2021/08/28 00:45:15;;;;;;;;;;;;;;;20.90;48.31;95570.03;1048653;28;1317;-70
2021/08/28 00:45:45;;;;;;;;;;;;;;;20.90;48.35;95562.13;1048129;28;1198;-70
2021/08/28 00:46:16;;;;;;;;;;;;;;;20.90;48.23;95564.78;1044436;28;1054;-71
2021/08/28 00:46:47;;;;;;;;;;;;;;;20.90;48.37;95559.50;1043073;28;1205;-71
2021/08/28 00:47:21;;;;;;;;;;;;;;;20.90;48.10;95570.03;1043022;28;2081;-70
2021/08/28 00:47:58;;;;;;;;;;;;;;;20.89;48.38;95568.50;1043277;28;1720;-71
2021/08/28 00:48:28;;;;;;;;;;;;;;;20.90;48.19;95566.63;1045864;28;1253;-70
2021/08/28 00:48:59;;;;;;;;;;;;;;;20.90;48.13;95569.25;1042829;28;2103;-72
2021/08/28 00:49:29;;;;;;;;;;;;;;;20.89;48.11;95563.22;1040115;28;1253;-70
2021/08/28 00:49:59;;;;;;;;;;;;;;;20.89;48.21;95563.22;1040285;28;1126;-70
2021/08/28 00:50:30;;;;;;;;;;;;;;;20.90;48.27;95567.41;1039881;28;1233;-72
2021/08/28 00:51:00;;;;;;;;;;;;;;;20.90;48.18;95564.78;1044384;28;1253;-68
2021/08/28 00:51:31;;;;;;;;;;;;;;;20.90;48.16;95570.03;1048360;28;1222;-68
2021/08/28 00:52:02;;;;;;;;;;;;;;;20.90;48.16;95569.25;1044071;28;1332;-70
2021/08/28 00:52:33;;;;;;;;;;;;;;;20.89;48.04;95560.59;1042790;28;1288;-69
2021/08/28 00:53:03;;;;;;;;;;;;;;;20.90;48.33;95563.97;1040195;28;1492;-70
2021/08/28 00:53:34;;;;;;;;;;;;;;;20.89;48.35;95567.69;1037942;28;1284;-69
2021/08/28 00:54:04;;;;;;;;;;;;;;;20.89;48.08;95563.22;1040871;28;2053;-71
2021/08/28 00:54:35;;;;;;;;;;;;;;;20.89;48.17;95573.75;1037779;28;1269;-70
2021/08/28 00:55:05;;;;;;;;;;;;;;;20.89;48.40;95559.78;1042321;28;1301;-68
2021/08/28 00:55:38;;;;;;;;;;;;;;;20.89;48.36;95562.44;1044256;28;1288;-71
2021/08/28 00:56:09;;;;;;;;;;;;;;;20.88;48.29;95569.53;1047670;28;1144;-67
2021/08/28 00:56:40;;;;;;;;;;;;;;;20.89;48.10;95568.50;1044239;28;1225;-71
2021/08/28 00:57:10;;;;;;;;;;;;;;;20.89;48.19;95567.69;1042789;28;1713;-68
2021/08/28 00:57:41;;;;;;;;;;;;;;;20.90;48.33;95567.41;1044164;28;1253;-69
2021/08/28 00:58:11;;;;;;;;;;;;;;;20.89;48.22;95570.34;1040355;28;1249;-71
2021/08/28 00:58:42;;;;;;;;;;;;;;;20.89;48.26;95562.44;1042789;28;2025;-72
2021/08/28 00:59:13;;;;;;;;;;;;;;;20.89;48.24;95557.94;1038821;28;1451;-69
2021/08/28 00:59:43;;;;;;;;;;;;;;;20.89;48.51;95570.34;1036206;28;1471;-71
2021/08/28 01:00:14;;;;;;;;;;;;;;;20.89;48.11;95568.50;1036331;28;1468;-71
2021/08/28 01:00:50;;;;;;;;;;;;;;;20.89;48.27;95565.84;1039535;28;1321;-68
2021/08/28 01:01:20;;;;;;;;;;;;;;;20.89;48.24;95560.59;1041387;28;1296;-68
2021/08/28 01:01:51;;;;;;;;;;;;;;;20.89;48.02;95563.22;1043357;28;1420;-69
2021/08/28 01:02:21;;;;;;;;;;;;;;;20.89;48.42;95565.84;1041443;28;1360;-70
2021/08/28 01:02:51;;;;;;;;;;;;;;;20.89;48.16;95568.50;1036514;28;2073;-70
2021/08/28 01:03:25;;;;;;;;;;;;;;;20.89;48.02;95565.84;1034902;28;1265;-70
2021/08/28 01:03:57;;;;;;;;;;;;;;;20.89;48.20;95568.50;1035178;28;2116;-70
2021/08/28 01:04:28;;;;;;;;;;;;;;;20.89;48.39;95565.06;1040077;28;1206;-70
2021/08/28 01:04:59;;;;;;;;;;;;;;;20.88;48.39;95566.91;1037726;28;1246;-70
2021/08/28 01:05:33;;;;;;;;;;;;;;;20.89;48.22;95572.97;1038956;28;1246;-70
2021/08/28 01:06:22;;;;;;;;;;;;;;;20.88;48.47;95569.53;1037660;28;1714;-70
2021/08/28 01:07:06;;;;;;;;;;;;;;;20.88;48.48;95569.53;1042644;28;1175;-70
2021/08/28 01:08:02;;;;;;;;;;;;;;;20.89;48.34;95562.44;1043443;28;1131;-71
2021/08/28 01:08:38;;;;;;;;;;;;;;;20.88;48.24;95566.91;1035161;28;1147;-68
2021/08/28 01:09:12;;;;;;;;;;;;;;;20.88;48.43;95572.16;1037217;28;2094;-71
2021/08/28 01:09:46;;;;;;;;;;;;;;;20.88;48.41;95568.75;1040164;28;1094;-71
2021/08/28 01:10:18;;;;;;;;;;;;;;;20.88;48.48;95566.13;1040195;28;1221;-69
2021/08/28 01:10:54;;;;;;;;;;;;;;;20.88;48.38;95574.81;1037912;28;1421;-71
2021/08/28 01:12:09;;;;;;;;;;;;;;;20.88;48.55;95577.44;1036857;28;1614;-71
2021/08/28 01:12:42;;;;;;;;;;;;;;;20.87;48.48;95575.88;1029668;28;1219;-72
2021/08/28 01:13:13;;;;;;;;;;;;;;;20.88;48.18;95566.13;1035900;28;1140;-72
2021/08/28 01:13:44;;;;;;;;;;;;;;;20.88;48.25;95569.53;1044547;28;1634;-73
2021/08/28 01:14:35;;;;;;;;;;;;;;;20.88;48.24;95566.91;1039639;28;1130;-70
2021/08/28 01:15:25;;;;;;;;;;;;;;;20.87;48.15;95565.34;1038519;28;1267;-71
2021/08/28 01:16:17;;;;;;;;;;;;;;;20.87;48.18;95570.63;1042819;28;1291;-71
2021/08/28 01:16:48;;;;;;;;;;;;;;;20.86;48.42;95569.03;1041318;28;1186;-71
2021/08/28 01:17:18;;;;;;;;;;;;;;;20.87;48.25;95578.53;1041141;28;1225;-71
2021/08/28 01:17:48;;;;;;;;;;;;;;;20.88;48.28;95574.00;1039032;28;1187;-70
2021/08/28 01:18:19;;;;;;;;;;;;;;;20.88;48.45;95572.16;1032190;28;1345;-70
2021/08/28 01:18:53;;;;;;;;;;;;;;;20.87;48.48;95564.56;1035184;28;2136;-69
2021/08/28 01:19:30;;;;;;;;;;;;;;;20.87;48.37;95564.56;1041207;28;1174;-70
2021/08/28 01:20:14;;;;;;;;;;;;;;;20.86;48.36;95571.66;1040018;28;1278;-71
2021/08/28 01:20:49;;;;;;;;;;;;;;;20.87;48.30;95569.81;1038845;28;2058;-72
2021/08/28 01:21:39;;;;;;;;;;;;;;;20.86;48.60;95571.66;1040843;28;1240;-71
2021/08/28 01:22:11;;;;;;;;;;;;;;;20.86;48.35;95571.66;1043942;28;1367;-70
2021/08/28 01:22:41;;;;;;;;;;;;;;;20.86;48.38;95563.75;1037466;28;1708;-70
2021/08/28 01:23:12;;;;;;;;;;;;;;;20.87;48.55;95567.19;1036082;28;1261;-70
2021/08/28 01:23:43;;;;;;;;;;;;;;;20.87;48.29;95569.81;1035822;28;1825;-69
2021/08/28 01:24:13;;;;;;;;;;;;;;;20.87;48.06;95565.34;1035608;28;2107;-70
2021/08/28 01:24:44;;;;;;;;;;;;;;;20.86;48.51;95566.41;1041114;28;1272;-72
2021/08/28 01:25:14;;;;;;;;;;;;;;;20.87;48.42;95569.81;1041716;28;1111;-71
2021/08/28 01:25:45;;;;;;;;;;;;;;;20.87;48.53;95565.34;1039373;28;1237;-71
2021/08/28 01:26:17;;;;;;;;;;;;;;;20.86;48.47;95566.41;1038726;28;1224;-71
2021/08/28 01:26:55;;;;;;;;;;;;;;;20.87;48.44;95569.81;1038331;28;1186;-71
2021/08/28 01:27:27;;;;;;;;;;;;;;;20.87;48.20;95567.19;1036671;28;1170;-71
2021/08/28 01:28:05;;;;;;;;;;;;;;;20.87;48.52;95572.47;1041717;28;1288;-72
2021/08/28 01:28:45;;;;;;;;;;;;;;;20.87;48.46;95570.63;1042371;28;1268;-71
2021/08/28 01:29:16;;;;;;;;;;;;;;;20.87;48.25;95573.25;1041064;28;2084;-71
2021/08/28 01:29:47;;;;;;;;;;;;;;;20.87;48.11;95575.88;1040077;28;1111;-71
2021/08/28 01:30:18;;;;;;;;;;;;;;;20.86;48.25;95569.03;1041253;28;1728;-70
2021/08/28 01:30:48;;;;;;;;;;;;;;;20.87;48.19;95575.09;1039671;28;1158;-71
2021/08/28 01:31:18;;;;;;;;;;;;;;;20.86;48.38;95571.66;1039819;28;1237;-72
2021/08/28 01:31:49;;;;;;;;;;;;;;;20.86;48.54;95574.31;1044213;28;1024;-71
2021/08/28 01:32:20;;;;;;;;;;;;;;;20.86;48.45;95573.50;1043651;28;1287;-69
2021/08/28 01:32:50;;;;;;;;;;;;;;;20.86;48.41;95574.31;1048255;28;1134;-73
2021/08/28 01:33:21;;;;;;;;;;;;;;;20.86;48.35;95576.94;1047748;28;1323;-71
2021/08/28 01:33:51;;;;;;;;;;;;;;;20.86;48.41;95579.56;1044226;28;2084;-70
2021/08/28 01:34:21;;;;;;;;;;;;;;;20.87;48.28;95583.78;1043968;28;1453;-71
2021/08/28 01:34:52;;;;;;;;;;;;;;;20.86;48.55;95578.78;1036039;28;1223;-69
2021/08/28 01:35:22;;;;;;;;;;;;;;;20.86;48.33;95576.94;1040000;28;1245;-71
2021/08/28 01:35:53;;;;;;;;;;;;;;;20.86;48.23;95570.88;1035783;28;1224;-70
2021/08/28 01:36:23;;;;;;;;;;;;;;;20.87;48.37;95575.09;1035328;28;1257;-71
2021/08/28 01:36:54;;;;;;;;;;;;;;;20.86;48.48;95574.31;1035727;28;1168;-71
2021/08/28 01:37:24;;;;;;;;;;;;;;;20.87;48.41;95573.25;1035760;28;1274;-71
2021/08/28 01:37:55;;;;;;;;;;;;;;;20.85;48.33;95572.75;1035932;28;1184;-72
2021/08/28 01:38:25;;;;;;;;;;;;;;;20.86;48.25;95571.66;1039782;28;1833;-70
2021/08/28 01:38:56;;;;;;;;;;;;;;;20.86;48.33;95566.41;1043262;28;2258;-71
2021/08/28 01:39:26;;;;;;;;;;;;;;;20.86;48.25;95569.03;1044212;28;2153;-72
2021/08/28 01:39:57;;;;;;;;;;;;;;;20.86;48.26;95571.66;1044015;28;1226;-71
2021/08/28 01:40:27;;;;;;;;;;;;;;;20.86;48.43;95576.94;1044371;28;1284;-69
2021/08/28 01:40:58;;;;;;;;;;;;;;;20.86;48.27;95576.94;1040028;28;1134;-70
2021/08/28 01:41:28;;;;;;;;;;;;;;;20.86;48.23;95576.16;1032337;28;1254;-70
2021/08/28 01:41:59;;;;;;;;;;;;;;;20.86;48.26;95570.88;1032149;28;2088;-72
2021/08/28 01:42:30;;;;;;;;;;;;;;;20.86;48.27;95568.25;1028746;28;1273;-69
2021/08/28 01:43:00;;;;;;;;;;;;;;;20.86;48.45;95574.31;1027846;28;1298;-72
2021/08/28 01:43:31;;;;;;;;;;;;;;;20.85;48.26;95572.75;1030990;28;1885;-71
2021/08/28 01:44:01;;;;;;;;;;;;;;;20.87;48.28;95575.88;1031058;28;2186;-72
2021/08/28 01:44:32;;;;;;;;;;;;;;;20.86;48.38;95576.16;1035505;28;1468;-71
2021/08/28 01:45:03;;;;;;;;;;;;;;;20.86;48.31;95578.78;1040171;28;1250;-70
2021/08/28 01:45:33;;;;;;;;;;;;;;;20.86;48.40;95576.16;1039071;28;2049;-71
2021/08/28 01:46:04;;;;;;;;;;;;;;;20.86;48.25;95568.25;1035412;28;1258;-71
2021/08/28 01:46:34;;;;;;;;;;;;;;;20.86;48.25;95578.78;1036284;28;1250;-71
2021/08/28 01:47:07;;;;;;;;;;;;;;;20.85;48.41;95572.75;1039934;28;1187;-71
2021/08/28 01:47:39;;;;;;;;;;;;;;;20.85;48.41;95578.03;1037147;28;1265;-70
2021/08/28 01:48:11;;;;;;;;;;;;;;;20.85;48.30;95572.75;1032952;28;1141;-71
2021/08/28 01:48:41;;;;;;;;;;;;;;;20.85;48.36;95577.22;1035157;28;1300;-71
2021/08/28 01:49:12;;;;;;;;;;;;;;;20.85;48.12;95572.75;1035260;28;2060;-71
2021/08/28 01:49:43;;;;;;;;;;;;;;;20.85;48.41;95578.03;1036464;28;1355;-70
2021/08/28 01:50:15;;;;;;;;;;;;;;;20.85;48.37;95578.03;1044154;28;1149;-69
2021/08/28 01:50:45;;;;;;;;;;;;;;;20.85;48.41;95577.22;1036332;28;1351;-71
2021/08/28 01:51:15;;;;;;;;;;;;;;;20.86;48.25;95576.16;1038743;28;1191;-71
2021/08/28 01:51:46;;;;;;;;;;;;;;;20.86;48.54;95579.56;1035460;28;1655;-70
2021/08/28 01:52:16;;;;;;;;;;;;;;;20.86;48.58;95576.16;1033297;28;1527;-72
2021/08/28 01:52:47;;;;;;;;;;;;;;;20.85;48.34;95575.38;1036939;28;1147;-73
2021/08/28 01:53:19;;;;;;;;;;;;;;;20.86;48.05;95579.56;1034853;28;1284;-71
2021/08/28 01:53:49;;;;;;;;;;;;;;;20.85;48.43;95574.59;1028746;28;1225;-71
2021/08/28 01:54:19;;;;;;;;;;;;;;;20.86;48.62;95586.69;1035262;28;2167;-71
2021/08/28 01:54:50;;;;;;;;;;;;;;;20.85;48.13;95578.03;1036233;28;1203;-71
2021/08/28 01:55:20;;;;;;;;;;;;;;;20.87;48.06;95577.72;1039786;28;1241;-71
2021/08/28 01:55:50;;;;;;;;;;;;;;;20.86;48.28;95573.50;1042308;28;1280;-70
2021/08/28 01:56:21;;;;;;;;;;;;;;;20.86;48.38;95576.16;1041279;28;1244;-70
2021/08/28 01:56:51;;;;;;;;;;;;;;;20.86;48.15;95573.50;1041217;28;1253;-72
2021/08/28 01:57:21;;;;;;;;;;;;;;;20.85;48.33;95580.66;1042602;28;1296;-70
2021/08/28 01:57:52;;;;;;;;;;;;;;;20.85;48.21;95570.13;1040636;28;1241;-73
2021/08/28 01:58:22;;;;;;;;;;;;;;;20.85;48.43;95572.75;1042659;28;1335;-71
2021/08/28 01:58:53;;;;;;;;;;;;;;;20.86;48.07;95568.25;1039938;28;1084;-72
2021/08/28 01:59:24;;;;;;;;;;;;;;;20.85;48.27;95567.47;1037150;28;2089;-72
2021/08/28 01:59:54;;;;;;;;;;;;;;;20.84;48.22;95576.44;1039177;28;1636;-71
2021/08/28 02:00:24;;;;;;;;;;;;;;;20.84;48.25;95568.53;1042832;28;1250;-71
2021/08/28 02:00:54;;;;;;;;;;;;;;;20.84;48.39;95573.78;1048053;28;1237;-71
2021/08/28 02:01:26;;;;;;;;;;;;;;;20.85;48.21;95567.47;1047171;28;1307;-70
2021/08/28 02:01:56;;;;;;;;;;;;;;;20.85;48.51;95571.94;1035278;28;2155;-68
2021/08/28 02:02:26;;;;;;;;;;;;;;;20.84;48.21;95568.53;1035118;28;1375;-71
2021/08/28 02:02:56;;;;;;;;;;;;;;;20.85;48.36;95564.06;1035949;28;1238;-71
2021/08/28 02:03:27;;;;;;;;;;;;;;;20.84;48.32;95565.91;1033782;28;1136;-69
2021/08/28 02:03:57;;;;;;;;;;;;;;;20.85;48.20;95578.03;1043318;28;1918;-70
2021/08/28 02:04:27;;;;;;;;;;;;;;;20.84;48.46;95570.38;1047589;28;2145;-71
2021/08/28 02:04:58;;;;;;;;;;;;;;;20.84;48.07;95568.53;1040086;28;1202;-70
2021/08/28 02:05:28;;;;;;;;;;;;;;;20.85;48.36;95572.75;1034469;28;1218;-70
2021/08/28 02:06:03;;;;;;;;;;;;;;;20.84;48.25;95573.78;1031310;28;1278;-72
2021/08/28 02:06:36;;;;;;;;;;;;;;;20.84;48.42;95573.78;1035094;28;1222;-69
2021/08/28 02:07:09;;;;;;;;;;;;;;;20.85;48.26;95571.94;1034044;28;2012;-70
2021/08/28 02:07:44;;;;;;;;;;;;;;;20.84;48.25;95576.44;1038204;28;2185;-72
2021/08/28 02:08:20;;;;;;;;;;;;;;;20.84;48.38;95565.91;1036031;28;1244;-71
2021/08/28 02:08:53;;;;;;;;;;;;;;;20.84;48.37;95565.91;1038055;28;1383;-72
2021/08/28 02:09:42;;;;;;;;;;;;;;;20.85;48.30;95571.94;1038009;28;1427;-71
2021/08/28 02:10:17;;;;;;;;;;;;;;;20.85;48.38;95571.94;1041661;28;1232;-71
2021/08/28 02:10:48;;;;;;;;;;;;;;;20.85;48.21;95571.94;1046336;28;1197;-70
2021/08/28 02:11:22;;;;;;;;;;;;;;;20.84;48.49;95570.38;1046732;28;2079;-71
2021/08/28 02:12:12;;;;;;;;;;;;;;;20.84;48.37;95571.16;1047239;28;2059;-71
2021/08/28 02:12:44;;;;;;;;;;;;;;;20.83;48.45;95566.97;1044096;28;1312;-69
2021/08/28 02:13:19;;;;;;;;;;;;;;;20.84;48.49;95567.72;1043496;28;1273;-69
2021/08/28 02:13:52;;;;;;;;;;;;;;;20.83;48.20;95559.06;1039538;28;1128;-71
2021/08/28 02:14:24;;;;;;;;;;;;;;;20.83;48.32;95563.53;1044059;28;1268;-70
2021/08/28 02:14:59;;;;;;;;;;;;;;;20.84;48.28;95562.47;1040353;28;1146;-71
2021/08/28 02:15:32;;;;;;;;;;;;;;;20.83;48.38;95561.72;1037601;28;1203;-72
2021/08/28 02:16:11;;;;;;;;;;;;;;;20.83;48.13;95566.97;1041247;28;1364;-69
2021/08/28 02:16:42;;;;;;;;;;;;;;;20.83;48.37;95559.06;1046312;28;1277;-70
2021/08/28 02:17:12;;;;;;;;;;;;;;;20.83;48.40;95564.34;1043894;28;2169;-70
2021/08/28 02:17:55;;;;;;;;;;;;;;;20.84;48.25;95565.09;1044137;28;1257;-70
2021/08/28 02:18:32;;;;;;;;;;;;;;;20.84;48.21;95563.25;1043142;28;1257;-70
2021/08/28 02:19:06;;;;;;;;;;;;;;;20.84;48.29;95562.47;1042689;28;1155;-70
2021/08/28 02:19:38;;;;;;;;;;;;;;;20.83;48.32;95564.34;1046017;28;1193;-71
2021/08/28 02:20:08;;;;;;;;;;;;;;;20.83;48.58;95564.34;1043996;28;1081;-70
2021/08/28 02:20:39;;;;;;;;;;;;;;;20.85;48.33;95566.69;1040331;28;1718;-70
2021/08/28 02:21:10;;;;;;;;;;;;;;;20.84;48.31;95560.63;1040045;28;1111;-72
2021/08/28 02:21:40;;;;;;;;;;;;;;;20.83;48.57;95564.34;1041682;28;1265;-71
2021/08/28 02:22:20;;;;;;;;;;;;;;;20.84;48.24;95565.91;1039205;28;2189;-71
2021/08/28 02:22:50;;;;;;;;;;;;;;;20.83;48.03;95559.06;1040919;28;1203;-71
2021/08/28 02:23:23;;;;;;;;;;;;;;;20.83;48.36;95564.34;1035840;28;1282;-70
2021/08/28 02:23:59;;;;;;;;;;;;;;;20.84;48.41;95568.53;1037163;28;1764;-72
2021/08/28 02:24:30;;;;;;;;;;;;;;;20.84;48.12;95560.63;1040190;28;1214;-73
2021/08/28 02:25:24;;;;;;;;;;;;;;;20.83;47.99;95559.06;1037317;28;1270;-71
2021/08/28 02:25:54;;;;;;;;;;;;;;;20.83;48.28;95560.91;1036460;28;1081;-72
2021/08/28 02:26:25;;;;;;;;;;;;;;;20.83;48.30;95564.34;1041480;28;1241;-72
2021/08/28 02:26:58;;;;;;;;;;;;;;;20.83;48.44;95558.28;1047178;28;1150;-69
2021/08/28 02:27:32;;;;;;;;;;;;;;;20.83;48.20;95563.53;1042645;28;2556;-69
2021/08/28 02:28:03;;;;;;;;;;;;;;;20.83;48.33;95561.72;1040077;28;1336;-70
2021/08/28 02:28:43;;;;;;;;;;;;;;;20.84;48.29;95555.34;1036707;28;1175;-70
2021/08/28 02:29:18;;;;;;;;;;;;;;;20.83;48.38;95564.34;1036563;28;1777;-70
2021/08/28 02:29:50;;;;;;;;;;;;;;;20.84;48.21;95557.19;1036807;28;1096;-71
2021/08/28 02:30:20;;;;;;;;;;;;;;;20.82;48.11;95557.47;1037666;28;1266;-71
2021/08/28 02:30:51;;;;;;;;;;;;;;;20.83;48.47;95556.44;1036058;28;1196;-71
2021/08/28 02:31:22;;;;;;;;;;;;;;;20.84;48.17;95560.63;1035668;28;1261;-70
2021/08/28 02:31:53;;;;;;;;;;;;;;;20.83;48.18;95559.06;1039224;28;1183;-71
2021/08/28 02:32:23;;;;;;;;;;;;;;;20.83;48.09;95556.44;1036937;28;2070;-71
2021/08/28 02:32:54;;;;;;;;;;;;;;;20.83;48.38;95555.63;1039675;28;1093;-71
2021/08/28 02:33:24;;;;;;;;;;;;;;;20.82;48.30;95557.47;1042838;28;1190;-71
2021/08/28 02:33:54;;;;;;;;;;;;;;;20.83;48.36;95556.44;1043588;28;1157;-70
2021/08/28 02:34:25;;;;;;;;;;;;;;;20.83;48.22;95556.44;1043120;28;1269;-70
2021/08/28 02:34:56;;;;;;;;;;;;;;;20.83;48.29;95561.72;1048142;28;1204;-69
2021/08/28 02:35:26;;;;;;;;;;;;;;;20.84;48.07;95557.19;1044782;28;1213;-71
2021/08/28 02:35:56;;;;;;;;;;;;;;;20.82;48.35;95557.47;1040332;28;1198;-71
2021/08/28 02:36:27;;;;;;;;;;;;;;;20.83;48.27;95560.91;1039987;28;1477;-71
2021/08/28 02:36:58;;;;;;;;;;;;;;;20.82;48.31;95554.84;1035807;28;1167;-72
2021/08/28 02:37:28;;;;;;;;;;;;;;;20.82;48.19;95551.44;1039081;28;2148;-69
2021/08/28 02:37:59;;;;;;;;;;;;;;;20.83;48.09;95560.91;1038778;28;1995;-71
2021/08/28 02:38:29;;;;;;;;;;;;;;;20.82;48.02;95557.47;1040375;28;1749;-71
2021/08/28 02:38:59;;;;;;;;;;;;;;;20.82;48.24;95552.22;1044044;28;1380;-71
2021/08/28 02:39:29;;;;;;;;;;;;;;;20.82;48.51;95557.47;1043034;28;1110;-70
2021/08/28 02:40:00;;;;;;;;;;;;;;;20.83;48.23;95553.00;1036394;28;1471;-71
2021/08/28 02:40:30;;;;;;;;;;;;;;;20.82;48.28;95557.47;1034077;28;1277;-71
2021/08/28 02:41:02;;;;;;;;;;;;;;;20.83;48.45;95555.63;1036189;28;1297;-71
2021/08/28 02:41:32;;;;;;;;;;;;;;;20.82;48.20;95546.94;1040193;28;1278;-71
2021/08/28 02:42:02;;;;;;;;;;;;;;;20.82;48.23;95552.22;1043124;28;1625;-70
2021/08/28 02:42:33;;;;;;;;;;;;;;;20.82;48.09;95560.13;1041532;28;2039;-70
2021/08/28 02:43:03;;;;;;;;;;;;;;;20.82;48.09;95546.94;1035018;28;1363;-70
2021/08/28 02:43:33;;;;;;;;;;;;;;;20.82;48.09;95554.84;1034113;28;1195;-70
2021/08/28 02:44:05;;;;;;;;;;;;;;;20.82;48.08;95552.22;1035745;28;1971;-70
2021/08/28 02:44:37;;;;;;;;;;;;;;;20.82;48.13;95554.84;1040158;28;1154;-71
2021/08/28 02:45:08;;;;;;;;;;;;;;;20.82;48.32;95548.78;1048553;28;1132;-71
2021/08/28 02:45:38;;;;;;;;;;;;;;;20.82;48.05;95546.16;1043556;28;1229;-70
2021/08/28 02:46:08;;;;;;;;;;;;;;;20.82;48.35;95552.22;1038155;28;1220;-69
2021/08/28 02:46:39;;;;;;;;;;;;;;;20.83;48.16;95551.16;1037796;28;1225;-71
2021/08/28 02:47:10;;;;;;;;;;;;;;;20.83;48.15;95548.53;1031881;28;2435;-70
2021/08/28 02:47:40;;;;;;;;;;;;;;;20.82;48.19;95546.16;1034047;28;1151;-69
2021/08/28 02:48:10;;;;;;;;;;;;;;;20.82;48.40;95557.47;1037687;28;1268;-70
2021/08/28 02:48:41;;;;;;;;;;;;;;;20.81;48.36;95547.22;1038327;28;1211;-70